首页
METAR-TAF:

METAR-TAF

机场 :

巴黎夏尔·戴高乐机场

巴黎戴高乐, 法国

纬度: 49-01N, 经度: 002-32E, 海拔: 118米

当前天气观测

该预报发布于35分钟前的14:30 UTC
风速12节,风向西
温度 17°C
湿度 48%
气压 1029 hPa
能见度10公里或以上
1500米以下无云,无积雨云

METAR: LFPG 231430Z 27012KT CAVOK 17/06 Q1029 NOSIG

时间: 17:05 (15:05 UTC)

预报

该预报发布于4小时和5分钟前的11:00 UTC
预报有效从23日的 12点(UTC)到 24日的 18点(UTC)
风速10节,风向西
能见度10公里或以上
1500米以下无云,无积雨云
短暂存在
从 24日的 03点(UTC)到 24日的 09点(UTC)
能見度: 4000
轻雾
成为
从 24日的 04点(UTC)到 24日的 06点(UTC)
多云层高于1200英尺
成为
从 24日的 06点(UTC)到 24日的 07点(UTC)
多云层高于500英尺
几率 40% :
短暂存在
从 24日的 07点(UTC)到 24日的 09点(UTC)
多云层高于300英尺
成为
从 24日的 09点(UTC)到 24日的 10点(UTC)
多云层高于1200英尺
成为
从 24日的 10点(UTC)到 24日的 12点(UTC)
多云层高于1700英尺

TAF: LFPG 231100Z 2312/2418 28010KT CAVOK TX17/2315Z TN08/2402Z TEMPO 2403/2409 4000 BR BECMG 2404/2406 BKN012 BECMG 2406/2407 BKN005 PROB40 TEMPO 2407/2409 BKN003 BECMG 2409/2410 BKN012 BECMG 2410/2412 BKN017

超过4000个机场的气象观测和天气预报(METAR&TAF报告)。

可查询的气象台以黄色和红色小点在地图上表示。

将鼠标移到小点上方,可查看气象台名称。

然后点击查看天气观测和预报。

如需切换地图:点击带黑十字的绿色按钮放大地图;点击带横线的绿色按钮缩小地图;或者点击绿色箭头查看邻近地区的地图。


METAR-TAF: